sensor_id;sensor_type;location;lat;lon;timestamp;pressure;altitude;pressure_sealevel;temperature;humidity
56340;BME280;42243;42.644;23.366;2023-05-01T00:02:20;94497.75;;;13.31;67.66
56340;BME280;42243;42.644;23.366;2023-05-01T00:04:45;94532.50;;;13.38;68.39
56340;BME280;42243;42.644;23.366;2023-05-01T00:07:11;94535.56;;;13.35;68.57
56340;BME280;42243;42.644;23.366;2023-05-01T00:09:36;94511.81;;;13.36;68.11
56340;BME280;42243;42.644;23.366;2023-05-01T00:12:02;94530.72;;;13.38;67.99
56340;BME280;42243;42.644;23.366;2023-05-01T00:14:28;94527.72;;;13.35;67.95
56340;BME280;42243;42.644;23.366;2023-05-01T00:16:53;94435.88;;;12.74;67.91
56340;BME280;42243;42.644;23.366;2023-05-01T00:19:19;94534.00;;;13.27;66.62
56340;BME280;42243;42.644;23.366;2023-05-01T00:21:47;94531.25;;;13.22;66.49
56340;BME280;42243;42.644;23.366;2023-05-01T00:24:15;94481.09;;;12.81;67.97
56340;BME280;42243;42.644;23.366;2023-05-01T00:26:41;94532.03;;;13.22;67.29
56340;BME280;42243;42.644;23.366;2023-05-01T00:29:07;94515.06;;;13.07;68.00
56340;BME280;42243;42.644;23.366;2023-05-01T00:31:32;94527.22;;;13.19;67.67
56340;BME280;42243;42.644;23.366;2023-05-01T00:33:58;94530.44;;;13.21;68.03
56340;BME280;42243;42.644;23.366;2023-05-01T00:36:23;94476.44;;;12.83;68.68
56340;BME280;42243;42.644;23.366;2023-05-01T00:38:49;94529.22;;;13.24;69.07
56340;BME280;42243;42.644;23.366;2023-05-01T00:41:14;94496.13;;;12.86;68.34
56340;BME280;42243;42.644;23.366;2023-05-01T00:43:40;94492.00;;;12.97;66.24
56340;BME280;42243;42.644;23.366;2023-05-01T00:46:06;94530.78;;;12.81;67.02
56340;BME280;42243;42.644;23.366;2023-05-01T00:48:32;94548.88;;;12.83;67.13
56340;BME280;42243;42.644;23.366;2023-05-01T00:50:59;94554.28;;;12.88;67.93
56340;BME280;42243;42.644;23.366;2023-05-01T00:53:26;94476.38;;;12.40;68.70
56340;BME280;42243;42.644;23.366;2023-05-01T00:55:53;94545.78;;;12.93;69.01
56340;BME280;42243;42.644;23.366;2023-05-01T00:58:20;94513.91;;;12.77;67.86
56340;BME280;42243;42.644;23.366;2023-05-01T01:00:47;94495.91;;;12.62;68.46
56340;BME280;42243;42.644;23.366;2023-05-01T01:03:13;94488.28;;;12.61;68.89
56340;BME280;42243;42.644;23.366;2023-05-01T01:05:42;94503.50;;;12.71;68.87
56340;BME280;42243;42.644;23.366;2023-05-01T01:18:47;94558.53;;;12.82;69.26
56340;BME280;42243;42.644;23.366;2023-05-01T01:21:23;94525.38;;;12.51;69.67
56340;BME280;42243;42.644;23.366;2023-05-01T01:35:19;94570.03;;;12.50;70.00
56340;BME280;42243;42.644;23.366;2023-05-01T01:38:21;94569.69;;;12.39;69.67
56340;BME280;42243;42.644;23.366;2023-05-01T01:40:57;94502.41;;;11.83;70.49
56340;BME280;42243;42.644;23.366;2023-05-01T01:43:25;94534.66;;;12.09;70.43
56340;BME280;42243;42.644;23.366;2023-05-01T01:46:00;94525.25;;;12.01;70.61
56340;BME280;42243;42.644;23.366;2023-05-01T01:48:33;94480.34;;;11.72;71.23
56340;BME280;42243;42.644;23.366;2023-05-01T01:51:05;94519.03;;;11.95;70.88
56340;BME280;42243;42.644;23.366;2023-05-01T01:53:34;94567.97;;;12.20;71.06
56340;BME280;42243;42.644;23.366;2023-05-01T01:56:02;94560.75;;;12.15;71.29
56340;BME280;42243;42.644;23.366;2023-05-01T01:58:31;94495.59;;;11.75;71.22
56340;BME280;42243;42.644;23.366;2023-05-01T02:00:58;94542.94;;;11.99;71.10
56340;BME280;42243;42.644;23.366;2023-05-01T02:03:24;94484.59;;;11.67;71.04
56340;BME280;42243;42.644;23.366;2023-05-01T02:05:51;94557.94;;;12.10;71.26
56340;BME280;42243;42.644;23.366;2023-05-01T02:08:18;94431.09;;;11.31;71.21
56340;BME280;42243;42.644;23.366;2023-05-01T02:10:45;94533.13;;;11.94;71.23
56340;BME280;42243;42.644;23.366;2023-05-01T02:13:12;94478.03;;;11.51;70.96
56340;BME280;42243;42.644;23.366;2023-05-01T02:15:39;94327.44;;;10.48;71.32
56340;BME280;42243;42.644;23.366;2023-05-01T02:18:05;94560.59;;;12.03;70.68
56340;BME280;42243;42.644;23.366;2023-05-01T02:20:32;94561.31;;;11.66;71.68
56340;BME280;42243;42.644;23.366;2023-05-01T02:22:58;94520.72;;;10.71;73.96
56340;BME280;42243;42.644;23.366;2023-05-01T02:25:25;94504.25;;;10.77;73.94
56340;BME280;42243;42.644;23.366;2023-05-01T02:27:58;94528.69;;;11.23;73.17
56340;BME280;42243;42.644;23.366;2023-05-01T02:30:25;94554.72;;;11.56;72.90
56340;BME280;42243;42.644;23.366;2023-05-01T02:32:50;94513.19;;;11.35;72.47
56340;BME280;42243;42.644;23.366;2023-05-01T02:35:16;94468.53;;;10.98;71.91
56340;BME280;42243;42.644;23.366;2023-05-01T02:37:42;94530.34;;;10.97;73.13
56340;BME280;42243;42.644;23.366;2023-05-01T02:40:10;94493.41;;;10.80;72.91
56340;BME280;42243;42.644;23.366;2023-05-01T02:42:37;94434.28;;;10.61;72.91
56340;BME280;42243;42.644;23.366;2023-05-01T02:45:05;94565.59;;;11.40;73.22
56340;BME280;42243;42.644;23.366;2023-05-01T02:47:34;94541.91;;;11.35;72.85
56340;BME280;42243;42.644;23.366;2023-05-01T02:50:01;94567.41;;;11.46;72.53
56340;BME280;42243;42.644;23.366;2023-05-01T02:52:28;94550.94;;;11.32;72.61
56340;BME280;42243;42.644;23.366;2023-05-01T02:54:54;94572.41;;;11.41;72.62
56340;BME280;42243;42.644;23.366;2023-05-01T02:57:20;94420.84;;;10.44;72.88
56340;BME280;42243;42.644;23.366;2023-05-01T02:59:46;94496.63;;;10.82;73.04
56340;BME280;42243;42.644;23.366;2023-05-01T03:02:11;94514.88;;;10.96;72.78
56340;BME280;42243;42.644;23.366;2023-05-01T03:04:38;94525.53;;;11.01;72.30
56340;BME280;42243;42.644;23.366;2023-05-01T03:07:03;94505.03;;;10.85;72.55
56340;BME280;42243;42.644;23.366;2023-05-01T03:09:29;94539.56;;;11.13;72.43
56340;BME280;42243;42.644;23.366;2023-05-01T03:11:56;94534.34;;;11.00;72.70
56340;BME280;42243;42.644;23.366;2023-05-01T03:14:21;94501.84;;;10.42;72.94
56340;BME280;42243;42.644;23.366;2023-05-01T03:16:47;94589.78;;;9.79;78.42
56340;BME280;42243;42.644;23.366;2023-05-01T03:19:13;94461.66;;;8.94;78.70
56340;BME280;42243;42.644;23.366;2023-05-01T03:21:38;94584.59;;;9.44;81.29
56340;BME280;42243;42.644;23.366;2023-05-01T03:24:04;94504.56;;;8.76;83.27
56340;BME280;42243;42.644;23.366;2023-05-01T03:26:30;94546.34;;;8.81;84.58
56340;BME280;42243;42.644;23.366;2023-05-01T03:28:57;94582.19;;;9.14;84.66
56340;BME280;42243;42.644;23.366;2023-05-01T03:31:22;94563.63;;;9.52;82.87
56340;BME280;42243;42.644;23.366;2023-05-01T03:33:48;94588.81;;;9.87;82.04
56340;BME280;42243;42.644;23.366;2023-05-01T03:36:14;94517.53;;;9.05;81.16
56340;BME280;42243;42.644;23.366;2023-05-01T03:38:40;94563.03;;;8.94;82.76
56340;BME280;42243;42.644;23.366;2023-05-01T03:41:07;94598.69;;;9.00;84.47
56340;BME280;42243;42.644;23.366;2023-05-01T03:43:32;94601.16;;;9.36;82.90
56340;BME280;42243;42.644;23.366;2023-05-01T03:45:58;94543.06;;;9.22;82.03
56340;BME280;42243;42.644;23.366;2023-05-01T03:48:23;94604.69;;;9.92;80.59
56340;BME280;42243;42.644;23.366;2023-05-01T03:50:52;94614.78;;;10.15;79.51
56340;BME280;42243;42.644;23.366;2023-05-01T03:53:17;94586.22;;;9.93;78.80
56340;BME280;42243;42.644;23.366;2023-05-01T03:55:43;94598.72;;;10.11;78.13
56340;BME280;42243;42.644;23.366;2023-05-01T03:58:09;94617.44;;;10.28;77.64
56340;BME280;42243;42.644;23.366;2023-05-01T04:00:37;94622.34;;;10.45;77.26
56340;BME280;42243;42.644;23.366;2023-05-01T04:03:05;94621.31;;;10.46;76.89
56340;BME280;42243;42.644;23.366;2023-05-01T04:05:31;94620.94;;;10.49;75.79
56340;BME280;42243;42.644;23.366;2023-05-01T04:07:56;94590.22;;;10.31;75.34
56340;BME280;42243;42.644;23.366;2023-05-01T04:10:22;94576.22;;;10.38;74.56
56340;BME280;42243;42.644;23.366;2023-05-01T04:12:47;94613.72;;;10.64;74.46
56340;BME280;42243;42.644;23.366;2023-05-01T04:15:13;94538.63;;;10.13;74.31
56340;BME280;42243;42.644;23.366;2023-05-01T04:17:38;94608.31;;;10.52;74.16
56340;BME280;42243;42.644;23.366;2023-05-01T04:20:04;94597.28;;;10.57;74.23
56340;BME280;42243;42.644;23.366;2023-05-01T04:22:31;94620.19;;;10.81;74.07
56340;BME280;42243;42.644;23.366;2023-05-01T04:24:56;94582.44;;;10.64;73.52
56340;BME280;42243;42.644;23.366;2023-05-01T04:27:22;94627.41;;;10.93;73.36
56340;BME280;42243;42.644;23.366;2023-05-01T04:29:47;94617.78;;;10.87;73.39
56340;BME280;42243;42.644;23.366;2023-05-01T04:32:13;94606.97;;;10.83;73.30
56340;BME280;42243;42.644;23.366;2023-05-01T04:34:38;94631.63;;;11.00;73.18
56340;BME280;42243;42.644;23.366;2023-05-01T04:37:04;94539.72;;;10.52;73.38
56340;BME280;42243;42.644;23.366;2023-05-01T04:39:31;94617.41;;;11.10;73.27
56340;BME280;42243;42.644;23.366;2023-05-01T04:41:57;94619.00;;;11.11;73.81
56340;BME280;42243;42.644;23.366;2023-05-01T04:44:23;94631.03;;;11.18;73.96
56340;BME280;42243;42.644;23.366;2023-05-01T04:46:48;94637.25;;;11.31;73.42
56340;BME280;42243;42.644;23.366;2023-05-01T04:49:14;94577.09;;;10.99;74.22
56340;BME280;42243;42.644;23.366;2023-05-01T04:51:39;94555.19;;;10.87;73.77
56340;BME280;42243;42.644;23.366;2023-05-01T04:54:05;94610.56;;;11.29;73.45
56340;BME280;42243;42.644;23.366;2023-05-01T04:56:30;94558.81;;;10.99;73.66
56340;BME280;42243;42.644;23.366;2023-05-01T04:58:56;94616.59;;;11.36;73.85
56340;BME280;42243;42.644;23.366;2023-05-01T05:01:22;94560.59;;;10.98;73.57
56340;BME280;42243;42.644;23.366;2023-05-01T05:03:47;94585.50;;;11.28;73.31
56340;BME280;42243;42.644;23.366;2023-05-01T05:06:13;94603.72;;;11.41;73.40
56340;BME280;42243;42.644;23.366;2023-05-01T05:08:38;94602.53;;;11.37;73.47
56340;BME280;42243;42.644;23.366;2023-05-01T05:11:04;94653.06;;;11.76;73.17
56340;BME280;42243;42.644;23.366;2023-05-01T05:13:29;94658.47;;;11.88;72.80
56340;BME280;42243;42.644;23.366;2023-05-01T05:15:55;94586.88;;;11.50;72.60
56340;BME280;42243;42.644;23.366;2023-05-01T05:18:20;94603.09;;;11.59;72.72
56340;BME280;42243;42.644;23.366;2023-05-01T05:20:46;94640.63;;;11.91;72.82
56340;BME280;42243;42.644;23.366;2023-05-01T05:23:12;94657.84;;;12.12;72.81
56340;BME280;42243;42.644;23.366;2023-05-01T05:25:37;94661.06;;;12.21;72.96
56340;BME280;42243;42.644;23.366;2023-05-01T05:28:03;94632.53;;;12.13;72.44
56340;BME280;42243;42.644;23.366;2023-05-01T05:30:28;94674.66;;;12.43;72.42
56340;BME280;42243;42.644;23.366;2023-05-01T05:32:54;94598.59;;;11.99;72.13
56340;BME280;42243;42.644;23.366;2023-05-01T05:35:19;94609.63;;;12.15;72.03
56340;BME280;42243;42.644;23.366;2023-05-01T05:37:45;94602.38;;;12.17;71.39
56340;BME280;42243;42.644;23.366;2023-05-01T05:40:11;94579.09;;;12.09;71.20
56340;BME280;42243;42.644;23.366;2023-05-01T05:42:36;94582.69;;;12.08;71.34
56340;BME280;42243;42.644;23.366;2023-05-01T05:45:02;94669.44;;;12.81;71.10
56340;BME280;42243;42.644;23.366;2023-05-01T05:47:27;94676.06;;;12.84;71.45
56340;BME280;42243;42.644;23.366;2023-05-01T05:49:53;94669.44;;;12.81;71.36
56340;BME280;42243;42.644;23.366;2023-05-01T05:52:20;94655.13;;;12.84;71.44
56340;BME280;42243;42.644;23.366;2023-05-01T05:54:46;94610.38;;;12.60;71.40
56340;BME280;42243;42.644;23.366;2023-05-01T05:57:11;94662.94;;;13.22;70.09
56340;BME280;42243;42.644;23.366;2023-05-01T05:59:41;94638.13;;;13.00;70.57
56340;BME280;42243;42.644;23.366;2023-05-01T06:02:08;94640.03;;;13.11;70.55
56340;BME280;42243;42.644;23.366;2023-05-01T06:04:34;94653.13;;;13.43;69.40
56340;BME280;42243;42.644;23.366;2023-05-01T06:06:59;94646.84;;;13.44;69.16
56340;BME280;42243;42.644;23.366;2023-05-01T06:09:24;94604.63;;;13.59;68.15
56340;BME280;42243;42.644;23.366;2023-05-01T06:11:50;94691.94;;;14.89;66.06
56340;BME280;42243;42.644;23.366;2023-05-01T06:14:16;94635.66;;;15.50;62.86
56340;BME280;42243;42.644;23.366;2023-05-01T06:16:41;94627.66;;;14.79;63.20
56340;BME280;42243;42.644;23.366;2023-05-01T06:19:07;94694.22;;;15.81;61.75
56340;BME280;42243;42.644;23.366;2023-05-01T06:21:34;94692.19;;;17.45;58.34
56340;BME280;42243;42.644;23.366;2023-05-01T06:24:00;94640.84;;;18.42;54.13
56340;BME280;42243;42.644;23.366;2023-05-01T06:26:25;94605.84;;;19.34;51.56
56340;BME280;42243;42.644;23.366;2023-05-01T06:28:51;94685.06;;;20.84;48.82
56340;BME280;42243;42.644;23.366;2023-05-01T06:31:16;94681.00;;;21.59;45.83
56340;BME280;42243;42.644;23.366;2023-05-01T06:33:42;94656.97;;;22.52;44.15
56340;BME280;42243;42.644;23.366;2023-05-01T06:36:07;94665.81;;;23.42;42.56
56340;BME280;42243;42.644;23.366;2023-05-01T06:38:33;94659.06;;;24.18;40.67
56340;BME280;42243;42.644;23.366;2023-05-01T06:40:58;94627.41;;;24.65;38.79
56340;BME280;42243;42.644;23.366;2023-05-01T06:43:24;94627.38;;;25.27;37.28
56340;BME280;42243;42.644;23.366;2023-05-01T06:45:55;94595.34;;;25.92;34.74
56340;BME280;42243;42.644;23.366;2023-05-01T06:48:21;94644.88;;;26.45;35.33
56340;BME280;42243;42.644;23.366;2023-05-01T06:50:46;94642.16;;;27.37;33.15
56340;BME280;42243;42.644;23.366;2023-05-01T06:53:12;94676.13;;;28.49;31.30
56340;BME280;42243;42.644;23.366;2023-05-01T06:55:38;94642.88;;;29.34;29.83
56340;BME280;42243;42.644;23.366;2023-05-01T06:58:03;94637.78;;;29.93;29.11
56340;BME280;42243;42.644;23.366;2023-05-01T07:00:29;94629.16;;;30.94;27.14
56340;BME280;42243;42.644;23.366;2023-05-01T07:02:55;94663.72;;;32.56;25.58
56340;BME280;42243;42.644;23.366;2023-05-01T07:05:20;94636.84;;;33.37;24.65
56340;BME280;42243;42.644;23.366;2023-05-01T07:07:46;94629.00;;;33.72;23.53
56340;BME280;42243;42.644;23.366;2023-05-01T07:10:12;94674.31;;;35.34;22.43
56340;BME280;42243;42.644;23.366;2023-05-01T07:12:37;94675.47;;;33.78;23.51
56340;BME280;42243;42.644;23.366;2023-05-01T07:15:03;94676.66;;;36.33;21.43
56340;BME280;42243;42.644;23.366;2023-05-01T07:17:29;94679.06;;;37.34;20.53
56340;BME280;42243;42.644;23.366;2023-05-01T07:19:54;94666.41;;;37.79;19.52
56340;BME280;42243;42.644;23.366;2023-05-01T07:22:19;94636.56;;;38.24;19.10
56340;BME280;42243;42.644;23.366;2023-05-01T07:24:45;94680.06;;;39.02;18.74
56340;BME280;42243;42.644;23.366;2023-05-01T07:27:10;94641.88;;;37.42;19.31
56340;BME280;42243;42.644;23.366;2023-05-01T07:29:37;94677.81;;;32.28;24.60
56340;BME280;42243;42.644;23.366;2023-05-01T07:32:03;94623.88;;;36.77;20.02
56340;BME280;42243;42.644;23.366;2023-05-01T07:34:30;94647.59;;;37.33;18.89
56340;BME280;42243;42.644;23.366;2023-05-01T07:36:56;94639.75;;;35.66;20.64
56340;BME280;42243;42.644;23.366;2023-05-01T07:39:22;94676.13;;;36.93;19.59
56340;BME280;42243;42.644;23.366;2023-05-01T07:41:47;94660.41;;;40.54;17.35
56340;BME280;42243;42.644;23.366;2023-05-01T07:44:13;94651.28;;;41.51;15.98
56340;BME280;42243;42.644;23.366;2023-05-01T07:46:38;94647.22;;;42.58;15.26
56340;BME280;42243;42.644;23.366;2023-05-01T07:49:03;94669.47;;;43.16;15.14
56340;BME280;42243;42.644;23.366;2023-05-01T07:51:29;94654.59;;;43.86;14.02
56340;BME280;42243;42.644;23.366;2023-05-01T07:53:55;94624.97;;;44.00;14.17
56340;BME280;42243;42.644;23.366;2023-05-01T07:56:20;94679.13;;;44.31;13.42
56340;BME280;42243;42.644;23.366;2023-05-01T07:58:46;94683.16;;;34.64;20.29
56340;BME280;42243;42.644;23.366;2023-05-01T08:01:11;94673.44;;;37.80;18.72
56340;BME280;42243;42.644;23.366;2023-05-01T08:03:37;94681.22;;;42.08;15.53
56340;BME280;42243;42.644;23.366;2023-05-01T08:06:02;94682.97;;;41.52;15.90
56340;BME280;42243;42.644;23.366;2023-05-01T08:08:28;94660.91;;;38.47;18.42
56340;BME280;42243;42.644;23.366;2023-05-01T08:10:53;94681.59;;;35.30;20.43
56340;BME280;42243;42.644;23.366;2023-05-01T08:13:19;94671.09;;;35.83;19.40
56340;BME280;42243;42.644;23.366;2023-05-01T08:15:45;94631.47;;;27.37;27.84
56340;BME280;42243;42.644;23.366;2023-05-01T08:18:11;94659.34;;;24.40;33.08
56340;BME280;42243;42.644;23.366;2023-05-01T08:20:36;94627.00;;;25.14;30.92
56340;BME280;42243;42.644;23.366;2023-05-01T08:23:02;94661.66;;;29.69;25.91
56340;BME280;42243;42.644;23.366;2023-05-01T08:25:27;94682.72;;;30.49;25.09
56340;BME280;42243;42.644;23.366;2023-05-01T08:27:54;94629.16;;;24.50;32.95
56340;BME280;42243;42.644;23.366;2023-05-01T08:30:19;94646.75;;;25.13;32.66
56340;BME280;42243;42.644;23.366;2023-05-01T08:32:45;94654.56;;;26.27;31.51
56340;BME280;42243;42.644;23.366;2023-05-01T08:35:10;94671.00;;;27.04;30.10
56340;BME280;42243;42.644;23.366;2023-05-01T08:37:36;94694.03;;;22.88;35.96
56340;BME280;42243;42.644;23.366;2023-05-01T08:40:01;94685.44;;;21.18;38.65
56340;BME280;42243;42.644;23.366;2023-05-01T08:42:34;94673.63;;;20.63;40.83
56340;BME280;42243;42.644;23.366;2023-05-01T08:45:00;94630.56;;;21.75;38.38
56340;BME280;42243;42.644;23.366;2023-05-01T08:47:26;94656.81;;;21.30;39.06
56340;BME280;42243;42.644;23.366;2023-05-01T08:49:55;94694.69;;;19.99;39.14
56340;BME280;42243;42.644;23.366;2023-05-01T08:52:22;94688.34;;;20.48;40.51
56340;BME280;42243;42.644;23.366;2023-05-01T08:54:49;94626.63;;;21.62;38.26
56340;BME280;42243;42.644;23.366;2023-05-01T08:57:19;94618.56;;;20.85;40.01
56340;BME280;42243;42.644;23.366;2023-05-01T08:59:46;94674.03;;;22.20;38.96
56340;BME280;42243;42.644;23.366;2023-05-01T09:02:14;94672.44;;;21.27;38.32
56340;BME280;42243;42.644;23.366;2023-05-01T09:05:05;94674.56;;;21.25;39.71
56340;BME280;42243;42.644;23.366;2023-05-01T09:07:32;94672.44;;;22.24;38.66
56340;BME280;42243;42.644;23.366;2023-05-01T09:09:57;94669.53;;;22.96;35.39
56340;BME280;42243;42.644;23.366;2023-05-01T09:12:26;94650.41;;;22.89;35.21
56340;BME280;42243;42.644;23.366;2023-05-01T09:14:53;94662.88;;;21.10;38.38
56340;BME280;42243;42.644;23.366;2023-05-01T09:17:20;94676.91;;;20.37;39.76
56340;BME280;42243;42.644;23.366;2023-05-01T09:19:47;94631.88;;;21.00;38.35
56340;BME280;42243;42.644;23.366;2023-05-01T09:22:13;94574.09;;;18.96;41.77
56340;BME280;42243;42.644;23.366;2023-05-01T09:24:39;94597.22;;;19.11;42.03
56340;BME280;42243;42.644;23.366;2023-05-01T09:27:04;94560.34;;;18.94;41.79
56340;BME280;42243;42.644;23.366;2023-05-01T09:29:41;94678.66;;;20.69;40.98
56340;BME280;42243;42.644;23.366;2023-05-01T09:32:18;94677.69;;;20.96;39.27
56340;BME280;42243;42.644;23.366;2023-05-01T09:34:49;94613.56;;;20.15;40.42
56340;BME280;42243;42.644;23.366;2023-05-01T09:37:31;94662.66;;;21.17;39.66
56340;BME280;42243;42.644;23.366;2023-05-01T09:40:05;94662.13;;;22.02;37.59
56340;BME280;42243;42.644;23.366;2023-05-01T09:42:32;94633.78;;;20.47;39.18
56340;BME280;42243;42.644;23.366;2023-05-01T09:44:59;94512.00;;;20.52;37.79
56340;BME280;42243;42.644;23.366;2023-05-01T09:47:25;94645.94;;;21.27;37.20
56340;BME280;42243;42.644;23.366;2023-05-01T09:49:54;94630.06;;;21.57;36.17
56340;BME280;42243;42.644;23.366;2023-05-01T09:52:24;94670.91;;;21.67;38.21
56340;BME280;42243;42.644;23.366;2023-05-01T09:55:18;94536.34;;;19.76;39.72
56340;BME280;42243;42.644;23.366;2023-05-01T09:57:45;94557.38;;;20.76;38.66
56340;BME280;42243;42.644;23.366;2023-05-01T10:00:16;94607.22;;;21.36;38.59
56340;BME280;42243;42.644;23.366;2023-05-01T10:02:44;94660.19;;;20.85;39.53
56340;BME280;42243;42.644;23.366;2023-05-01T10:05:11;94580.94;;;20.88;39.77
56340;BME280;42243;42.644;23.366;2023-05-01T10:07:37;94594.50;;;20.18;40.55
56340;BME280;42243;42.644;23.366;2023-05-01T10:10:18;94646.94;;;21.00;40.91
56340;BME280;42243;42.644;23.366;2023-05-01T10:12:45;94659.75;;;21.90;39.22
56340;BME280;42243;42.644;23.366;2023-05-01T10:15:11;94615.44;;;21.75;38.52
56340;BME280;42243;42.644;23.366;2023-05-01T10:17:41;94658.16;;;21.43;39.59
56340;BME280;42243;42.644;23.366;2023-05-01T10:20:11;94625.28;;;21.65;39.21
56340;BME280;42243;42.644;23.366;2023-05-01T10:22:37;94659.78;;;20.02;42.02
56340;BME280;42243;42.644;23.366;2023-05-01T10:25:06;94607.19;;;20.90;40.03
56340;BME280;42243;42.644;23.366;2023-05-01T10:27:33;94643.81;;;21.39;39.54
56340;BME280;42243;42.644;23.366;2023-05-01T10:30:01;94613.09;;;21.64;38.88
56340;BME280;42243;42.644;23.366;2023-05-01T10:32:29;94614.91;;;21.12;38.48
56340;BME280;42243;42.644;23.366;2023-05-01T10:35:40;94635.34;;;21.73;38.19
56340;BME280;42243;42.644;23.366;2023-05-01T10:38:06;94623.94;;;21.77;38.78
56340;BME280;42243;42.644;23.366;2023-05-01T10:40:46;94643.31;;;21.73;38.34
56340;BME280;42243;42.644;23.366;2023-05-01T10:43:17;94627.91;;;21.85;37.33
56340;BME280;42243;42.644;23.366;2023-05-01T10:45:44;94567.75;;;20.15;38.97
56340;BME280;42243;42.644;23.366;2023-05-01T10:48:10;94552.50;;;20.53;38.28
56340;BME280;42243;42.644;23.366;2023-05-01T10:53:38;94629.72;;;20.87;39.62
56340;BME280;42243;42.644;23.366;2023-05-01T10:56:04;94645.13;;;20.32;41.72
56340;BME280;42243;42.644;23.366;2023-05-01T11:01:27;94646.63;;;19.11;45.17
56340;BME280;42243;42.644;23.366;2023-05-01T11:07:15;94655.69;;;19.85;43.14
56340;BME280;42243;42.644;23.366;2023-05-01T11:12:09;94653.13;;;20.48;41.60
56340;BME280;42243;42.644;23.366;2023-05-01T11:17:45;94649.59;;;19.84;41.70
56340;BME280;42243;42.644;23.366;2023-05-01T11:22:59;94645.66;;;18.95;43.25
56340;BME280;42243;42.644;23.366;2023-05-01T11:25:27;94586.41;;;19.18;41.74
56340;BME280;42243;42.644;23.366;2023-05-01T11:27:56;94529.53;;;19.05;40.98
56340;BME280;42243;42.644;23.366;2023-05-01T11:30:23;94650.81;;;20.09;40.60
56340;BME280;42243;42.644;23.366;2023-05-01T11:32:49;94630.22;;;20.79;40.17
56340;BME280;42243;42.644;23.366;2023-05-01T11:37:45;94661.31;;;19.93;41.31
56340;BME280;42243;42.644;23.366;2023-05-01T11:40:30;94653.16;;;19.68;42.39
56340;BME280;42243;42.644;23.366;2023-05-01T11:43:06;94630.31;;;20.36;41.77
56340;BME280;42243;42.644;23.366;2023-05-01T11:45:35;94643.03;;;21.23;39.90
56340;BME280;42243;42.644;23.366;2023-05-01T11:48:01;94619.19;;;21.44;38.57
56340;BME280;42243;42.644;23.366;2023-05-01T11:50:34;94648.59;;;21.42;37.77
56340;BME280;42243;42.644;23.366;2023-05-01T11:53:01;94574.34;;;21.32;36.97
56340;BME280;42243;42.644;23.366;2023-05-01T11:55:30;94605.09;;;21.69;36.67
56340;BME280;42243;42.644;23.366;2023-05-01T11:57:56;94653.31;;;22.22;36.21
56340;BME280;42243;42.644;23.366;2023-05-01T12:00:33;94647.53;;;21.94;35.27
56340;BME280;42243;42.644;23.366;2023-05-01T12:03:02;94643.84;;;21.90;35.40
56340;BME280;42243;42.644;23.366;2023-05-01T12:05:29;94645.97;;;21.83;34.24
56340;BME280;42243;42.644;23.366;2023-05-01T12:10:42;94605.16;;;21.53;35.17
56340;BME280;42243;42.644;23.366;2023-05-01T12:13:09;94585.72;;;21.84;35.05
56340;BME280;42243;42.644;23.366;2023-05-01T12:15:36;94641.09;;;22.21;35.26
56340;BME280;42243;42.644;23.366;2023-05-01T12:18:03;94662.34;;;22.26;35.03
56340;BME280;42243;42.644;23.366;2023-05-01T12:20:40;94600.59;;;21.69;35.09
56340;BME280;42243;42.644;23.366;2023-05-01T12:23:08;94553.69;;;21.13;34.75
56340;BME280;42243;42.644;23.366;2023-05-01T12:25:35;94595.31;;;21.59;34.56
56340;BME280;42243;42.644;23.366;2023-05-01T12:28:12;94611.19;;;21.85;35.09
56340;BME280;42243;42.644;23.366;2023-05-01T12:30:38;94673.53;;;22.03;35.37
56340;BME280;42243;42.644;23.366;2023-05-01T12:33:11;94656.28;;;21.95;35.59
56340;BME280;42243;42.644;23.366;2023-05-01T12:35:39;94669.53;;;22.15;35.04
56340;BME280;42243;42.644;23.366;2023-05-01T12:38:23;94615.16;;;21.00;34.55
56340;BME280;42243;42.644;23.366;2023-05-01T12:40:58;94645.16;;;21.83;34.79
56340;BME280;42243;42.644;23.366;2023-05-01T12:43:32;94632.19;;;21.76;34.64
56340;BME280;42243;42.644;23.366;2023-05-01T12:45:58;94650.19;;;21.89;34.74
56340;BME280;42243;42.644;23.366;2023-05-01T12:48:24;94671.38;;;22.10;33.71
56340;BME280;42243;42.644;23.366;2023-05-01T12:50:50;94673.53;;;21.97;32.83
56340;BME280;42243;42.644;23.366;2023-05-01T12:53:20;94609.38;;;21.65;34.97
56340;BME280;42243;42.644;23.366;2023-05-01T12:55:49;94640.63;;;21.37;35.91
56340;BME280;42243;42.644;23.366;2023-05-01T12:58:16;94604.81;;;20.98;36.84
56340;BME280;42243;42.644;23.366;2023-05-01T13:00:51;94658.44;;;20.53;37.83
56340;BME280;42243;42.644;23.366;2023-05-01T13:03:27;94634.75;;;20.89;37.69
56340;BME280;42243;42.644;23.366;2023-05-01T13:06:01;94489.28;;;19.78;37.22
56340;BME280;42243;42.644;23.366;2023-05-01T13:08:29;94614.25;;;19.26;40.31
56340;BME280;42243;42.644;23.366;2023-05-01T13:10:59;94601.25;;;19.94;38.15
56340;BME280;42243;42.644;23.366;2023-05-01T13:13:29;94655.81;;;19.68;38.90
56340;BME280;42243;42.644;23.366;2023-05-01T13:16:06;94673.47;;;19.94;39.70
56340;BME280;42243;42.644;23.366;2023-05-01T13:18:33;94674.28;;;20.42;38.83
56340;BME280;42243;42.644;23.366;2023-05-01T13:21:11;94674.28;;;20.48;40.08
56340;BME280;42243;42.644;23.366;2023-05-01T13:23:39;94668.38;;;19.50;43.08
56340;BME280;42243;42.644;23.366;2023-05-01T14:02:44;94704.16;;;18.81;44.80
56340;BME280;42243;42.644;23.366;2023-05-01T14:06:40;94653.09;;;18.10;46.57
56340;BME280;42243;42.644;23.366;2023-05-01T14:09:06;94635.44;;;18.32;45.94
56340;BME280;42243;42.644;23.366;2023-05-01T14:11:32;94658.41;;;18.76;44.99
56340;BME280;42243;42.644;23.366;2023-05-01T14:13:58;94673.19;;;18.33;46.35
56340;BME280;42243;42.644;23.366;2023-05-01T14:16:25;94697.16;;;19.19;45.18